Rio Pico, Argentina
Current Conditions -  °F | °C
As of 2:00 PM on Monday 24 Nov 2014 (Local Time) from SCAP Reporting Station
Clear Clear  
Wind Chill: 55°   Ceiling: Unl
Heat Index: 55°   Visibility: NA
Dew Point: 37°   Wind: 15mph
Humidity: 51%   Direction: 220°SW
Pressure: 30.21"   Gusts: NA
Location:  44.2°S, 71.35°W
Report Text: SCAP 241700Z AUTO 22013KT 190V270 //// // NSC 13/03 Q1023
Loading
Personal Weather Stations






























Interactive Weather Map New forecast layout! Learn more

10-Day Weather Forecast

Advertisements
Track Severe Weather on mobile